domingo, 25 de setembro de 2011

VULCANAIR/LINFORD AVIATION TEM NOVO ENDEREÇO EM SÃO PAULO


AMIGO URSO




Amigos decidiram pegar o avião e pescar em uma área despovoada do Alasca (algo fácil de encontrar, tendo 0,4 habitantes / km ²). 
 
Eles deixaram alimentos dentro do avião, cujo cheiro foi detectado por um urso que fez um estrago no avião a fim de obter alimento. 
 
E agora como chegou em casa?

O piloto passou um rádio para outro piloto, que trouxe dois pneus, três rolos de fita adesiva e algumas folhas de plástico. Os dois conseguiram consertar o avião e voltaram para casa
..


fonte/foto/Imgur
Enhanced by Zemanta

ACIDENTE NO NEPAL COM 19 MORTES



Um Beech 1900D da Buddha Air registro 9N-AEK realizando o voo U4-103 colidiu com o terreno matando os 16 passageiros e três tripulantes no Nepal que estavam voltando de um voo  chamado "Experiência Everest" , voo turismo ao redor do Monte Everest. 

O acidente aconteceu quando da aproximação para o aeroporto de Katmandu, no momento chovia e o nevoeiro tomava conta da região.

Funcionários do Aeroporto de Kathmandu  relataram que o voo 103 da Buddha caiu  quando regressava de um vôo de montanha, a bordo 10 indianos, dois americanos, um japonês, três europeus e os três tripulantes nepaleses. O contato por rádio foi perdido no 07:31 L.

A polícia do Nepal informou uma pessoa foi resgatado com vida, porém morreu no hospital. Os esforços de resgate foram prejudicados pela forte chuva. O local do acidente foi localizado as 08:00 L após as chamadas de emergência dos moradores locais.

Um residente na Vila Bishanku  disse, o avião atingiu um telhado de uma casa na aldeia, antes se chocar com o solo e desintregar.

Metars:
VNKT 250350Z 10004KT 6000 VCRA FEW015 SCT020 FEW025CB BKN100 22/18 Q1014 NOSIG
VNKT 250250Z 00000KT 4000 BR FEW010 SCT020 BKN100 22/19 Q1014 NOSIG
VNKT 250150Z 00000KT 6000 FEW010 SCT025 OVC100 20/19 Q1014 NOSIG
VNKT 250050Z 00000KT 6000 -RA FEW010 SCT020 OVC100 20/19 Q1013 NOSIG
VNKT 241150Z 29003KT 8000 SCT015 SCT024 BKN100 22/19 Q1011 NOSIG



fonte/foto/AvHerald 

Enhanced by Zemanta

MÍSTERIO REVELADO - ANTOINE SAINT-EXUPÉRY...

Foi um segredo guardado durante 64 anos. Horst Rippert, piloto alemão da Luftwaffe, admitiu, aos 88 anos, ter abatido Antoine de St Exu...